Weather observations for the past three days for
Kivalina, Kivalina Airport
| Date | Time (akdt) | Wind (kph) | Vis. (km) | Weather | Sky Cond. | Temperature (ºC) | Relative Humidity | Wind Chill (°C) | Heat Index (°C) | Pressure | Precipitation (cm) | ||||||
|---|---|---|---|---|---|---|---|---|---|---|---|---|---|---|---|---|---|
| Air | Dwpt | 6 hour | altimeter (cm) | sea level (mb) | 1 hr | 3 hr | 6 hr | ||||||||||
| Max. | Min. | ||||||||||||||||
| 08 | 03:53 | Calm | 16.09 | Fair | CLR | -5.6 | -7.2 | -1.7 | -6.1 | 89% | 76.5 | 1020.1 | |||||
| 08 | 02:53 | N 7 | 16.09 | Fair | CLR | -5 | -7.2 | 85% | -8 | 76.53 | 1020.3 | ||||||
| 08 | 01:53 | NE 9 | 16.09 | Fair | CLR | -4.4 | -6.7 | 84% | -8 | 76.56 | 1020.6 | ||||||
| 08 | 00:53 | Calm | 16.09 | Fair | CLR | -4.4 | -5.6 | 91% | 76.56 | 1020.7 | |||||||
| 07 | 23:53 | Calm | 16.09 | Fair | CLR | -2.8 | -5 | 85% | 76.56 | 1020.8 | |||||||
| 07 | 22:53 | W 6 | 16.09 | Fair | CLR | -2.8 | -4.4 | 89% | 76.56 | 1020.7 | |||||||
| 07 | 21:53 | W 11 | 16.09 | Fair | CLR | -1.7 | -4.4 | -0.6 | -1.7 | 82% | -5 | 76.56 | 1020.7 | ||||
| 07 | 20:53 | W 11 | 16.09 | Fair | CLR | -1.1 | -4.4 | 79% | -5 | 76.56 | 1020.6 | ||||||
| 07 | 19:53 | NW 15 | 16.09 | Fair | CLR | -0.6 | -4.4 | 76% | -5 | 76.58 | 1020.8 | ||||||
| 07 | 18:53 | NW 17 | 16.09 | Fair | CLR | -0.6 | -4.4 | 76% | -5 | 76.58 | 1020.8 | ||||||
| 07 | 17:53 | W 15 | 16.09 | Fair | CLR | -0.6 | -5.6 | 69% | -5 | 76.58 | 1020.9 | ||||||
| 07 | 16:53 | NW 17 | 16.09 | Fair | CLR | -1.1 | -6.1 | 69% | -6 | 76.58 | 1021.1 | ||||||
| 07 | 15:53 | W 15 | 16.09 | Fair | CLR | -1.1 | -6.7 | -1.1 | -5 | 66% | -5 | 76.61 | 1021.4 | ||||
| 07 | 14:53 | W 19 | 16.09 | Fair | CLR | -1.1 | -6.1 | 69% | -6 | 76.61 | 1021.4 | ||||||
| 07 | 13:53 | S 7 | 16.09 | Fair | CLR | -1.7 | -8.3 | 61% | -4 | 76.61 | 1021.3 | ||||||
| 07 | 12:53 | NE 9 | 16.09 | Fair | CLR | -2.2 | -7.8 | 66% | -5 | 76.61 | 1021.2 | ||||||
| 07 | 11:53 | N 17 | 16.09 | Fair | CLR | -2.8 | -7.8 | 69% | -8 | 76.61 | 1021.3 | ||||||
| 07 | 10:53 | N 28 | 16.09 | Fair | CLR | -3.9 | -7.2 | 78% | -11 | 76.58 | 1021.1 | ||||||
| 07 | 09:53 | N 30 | 16.09 | Fair | CLR | -5 | -8.3 | -5 | -6.1 | 78% | -12 | 76.61 | 1021.3 | ||||
| 07 | 08:53 | N 33 | 16.09 | Partly Cloudy and Breezy | SCT049 | -5.6 | -8.3 | 82% | -14 | 76.58 | 1021.0 | ||||||
| 07 | 07:53 | N 28 | 16.09 | Fair | CLR | -6.1 | -8.9 | 81% | -14 | 76.58 | 1020.8 | ||||||
| 07 | 06:53 | N 31 | 16.09 | Overcast | OVC055 | -6.1 | -8.3 | 85% | -14 | 76.58 | 1020.8 | ||||||
| 07 | 05:53 | N 33 | 16.09 | Overcast and Breezy | OVC060 | -6.1 | -8.3 | 85% | -14 | 76.56 | 1020.8 | ||||||
| 07 | 04:53 | N 26 | 16.09 | Overcast | FEW035 OVC055 | -6.1 | -8.3 | 85% | -13 | 76.61 | 1021.1 | ||||||
| 07 | 03:53 | N 33 | 16.09 | Overcast and Breezy | OVC041 | -6.1 | -8.3 | -5 | -6.1 | 85% | -14 | 76.56 | 1020.6 | ||||
| 07 | 02:53 | N 33 | 16.09 | Overcast and Breezy | FEW046 OVC060 | -6.1 | -8.9 | 81% | -14 | 76.53 | 1020.4 | ||||||
| 07 | 01:53 | N 39 | 16.09 | Overcast and Breezy | BKN060 OVC080 | -6.1 | -8.9 | 81% | -15 | 76.5 | 1020.1 | ||||||
| 07 | 00:53 | N 30 | 16.09 | Overcast | BKN080 OVC100 | -6.1 | -8.9 | 81% | -14 | 76.53 | 1020.3 | ||||||
| 06 | 23:53 | N 30 | 16.09 | Overcast | OVC095 | -6.1 | -8.9 | 81% | -14 | 76.5 | 1020.1 | ||||||
| 06 | 22:53 | N 33 | 16.09 | Overcast and Breezy | OVC095 | -5 | -8.3 | 78% | -13 | 76.5 | 1019.8 | ||||||
| 06 | 21:53 | N 37 | 16.09 | A Few Clouds and Breezy | FEW019 | -5 | -8.3 | -3.3 | -5 | 78% | -13 | 76.45 | 1019.4 | ||||
| 06 | 20:53 | N 39 | 16.09 | Partly Cloudy and Breezy | SCT020 | -3.9 | -7.8 | 75% | -12 | 76.45 | 1019.1 | ||||||
| 06 | 19:53 | N 28 | 16.09 | Overcast | OVC020 | -3.9 | -7.2 | 78% | -11 | 76.45 | 1019.3 | ||||||
| 06 | 18:53 | N 26 | 16.09 | A Few Clouds | FEW021 | -3.3 | -7.2 | 75% | -10 | 76.43 | 1018.8 | ||||||
| 06 | 17:53 | N 31 | 16.09 | A Few Clouds | FEW020 | -3.9 | -7.8 | 75% | -11 | 76.38 | 1018.1 | ||||||
| 06 | 16:53 | N 30 | 16.09 | Fair | CLR | -4.4 | -8.3 | 75% | -12 | 76.38 | 1018.1 | ||||||
| 06 | 15:53 | N 26 | 16.09 | A Few Clouds | FEW021 | -4.4 | -8.9 | -3.9 | -6.1 | 71% | -11 | 76.38 | 1018.3 | ||||
| 06 | 14:53 | N 26 | 16.09 | Mostly Cloudy | BKN020 | -4.4 | -8.3 | 75% | -11 | 76.33 | 1017.7 | ||||||
| 06 | 13:53 | N 28 | 16.09 | Partly Cloudy | SCT021 | -4.4 | -8.3 | 75% | -11 | 76.33 | 1017.5 | ||||||
| 06 | 12:53 | N 28 | 16.09 | Mostly Cloudy | SCT020 BKN034 | -4.4 | -8.9 | 71% | -11 | 76.28 | 1017.1 | ||||||
| 06 | 11:53 | NW 19 | 16.09 | Partly Cloudy | FEW024 SCT039 | -5 | -9.4 | 72% | -11 | 76.28 | 1016.8 | ||||||
| 06 | 10:53 | NW 24 | 16.09 | Overcast | OVC046 | -6.1 | -9.4 | 78% | -13 | 76.23 | 1016.3 | ||||||
| 06 | 09:53 | NW 22 | 16.09 | Overcast | OVC045 | -6.1 | -8.9 | -6.1 | -7.2 | 81% | -13 | 76.23 | 1016.2 | ||||
| 06 | 08:53 | N 17 | 12.87 | Overcast | OVC046 | -6.7 | -9.4 | 81% | -13 | 76.2 | 1015.9 | ||||||
| 06 | 07:53 | NW 20 | 16.09 | Overcast | OVC045 | -6.7 | -9.4 | 81% | -13 | 76.17 | 1015.6 | ||||||
| 06 | 06:53 | NW 20 | 16.09 | Overcast | OVC046 | -6.7 | -9.4 | 81% | -13 | 76.15 | 1015.4 | ||||||
| 06 | 05:53 | NW 19 | 16.09 | Overcast | FEW015 OVC045 | -6.7 | -9.4 | 81% | -13 | 76.15 | 1015.3 | ||||||
| 06 | 04:53 | N 17 | 16.09 | Overcast | FEW015 OVC044 | -6.7 | -9.4 | 81% | -13 | 76.15 | 1015.1 | ||||||
| 06 | 03:53 | NW 17 | 16.09 | Overcast | SCT016 OVC044 | -7.2 | -10 | -6.1 | -7.2 | 81% | -13 | 76.12 | 1014.9 | ||||
| 06 | 02:53 | N 20 | 16.09 | Overcast | OVC043 | -7.2 | -10 | 81% | -14 | 76.1 | 1014.6 | ||||||
| 06 | 01:53 | N 22 | 16.09 | Overcast | OVC048 | -7.2 | -10 | 81% | -14 | 76.1 | 1014.5 | ||||||
| 06 | 00:53 | N 28 | 16.09 | Overcast | OVC016 | -6.7 | -10 | 78% | -14 | 76.07 | 1014.2 | ||||||
| 05 | 23:53 | N 22 | 16.09 | Overcast | OVC016 | -6.1 | -9.4 | 78% | -13 | 76.05 | 1013.9 | ||||||
| 05 | 22:53 | N 24 | 16.09 | Overcast | OVC016 | -6.1 | -9.4 | 78% | -13 | 76.05 | 1013.7 | ||||||
| 05 | 21:53 | NW 26 | 16.09 | Overcast | OVC016 | -6.1 | -8.3 | -5 | -6.1 | 85% | -13 | 76.02 | 1013.5 | ||||
| 05 | 20:53 | NW 26 | 16.09 | Overcast | OVC014 | -5.6 | -7.8 | 85% | -13 | 76.02 | 1013.5 | ||||||
| 05 | 19:53 | W 26 | 16.09 | Overcast | OVC015 | -6.1 | -7.8 | 88% | -13 | 76 | 1013.3 | ||||||
| 05 | 18:53 | W 26 | 16.09 | Overcast | OVC015 | -5.6 | -7.8 | 85% | -13 | 76.02 | 1013.4 | ||||||
| 05 | 17:53 | W 26 | 16.09 | A Few Clouds | FEW016 | -5.6 | -7.8 | 85% | -13 | 76 | 1013.2 | ||||||
| 05 | 16:53 | NW 28 | 16.09 | A Few Clouds | FEW008 | -5.6 | -7.2 | 89% | -13 | 76 | 1013.1 | ||||||
| 05 | 15:53 | W 22 | 16.09 | Fair | CLR | -5 | -7.2 | -5 | -7.2 | 85% | -11 | 76 | 1013.0 | ||||
| 05 | 14:53 | W 26 | 16.09 | Fair | CLR | -5.6 | -7.2 | 89% | -13 | 76 | 1013.2 | ||||||
| 05 | 13:53 | W 24 | 16.09 | A Few Clouds | FEW006 | -6.1 | -7.8 | 88% | -13 | 76 | 1013.1 | ||||||
| 05 | 12:53 | W 20 | 16.09 | A Few Clouds | FEW006 | -6.1 | -8.3 | 85% | -12 | 76 | 1013.1 | ||||||
| 05 | 11:53 | W 20 | 16.09 | Mostly Cloudy | BKN006 | -6.7 | -8.3 | 89% | -13 | 76 | 1013.1 | ||||||
| 05 | 10:53 | NW 19 | 16.09 | Overcast | OVC005 | -7.2 | -8.3 | 92% | -14 | 76 | 1013.3 | ||||||
| 05 | 09:53 | NW 17 | 16.09 | Overcast | OVC005 | -6.7 | -7.8 | -5.6 | -7.2 | 92% | -13 | 76.02 | 1013.4 | ||||
| 05 | 08:53 | NW 19 | 16.09 | Overcast | OVC006 | -6.7 | -7.8 | 92% | -13 | 76.02 | 1013.5 | ||||||
| 05 | 07:53 | N 15 | 16.09 | Overcast | OVC008 | -6.1 | -7.8 | 88% | -11 | 76.02 | 1013.4 | ||||||
| 05 | 06:53 | N 11 | 16.09 | Overcast | OVC008 | -5.6 | -7.2 | 89% | -10 | 76.02 | 1013.6 | ||||||
| 05 | 05:53 | NW 17 | 16.09 | Overcast | OVC006 | -6.1 | -7.2 | 92% | -12 | 76.05 | 1013.8 | ||||||
| 05 | 04:53 | NW 11 | 16.09 | Overcast | OVC007 | -6.1 | -7.2 | 92% | -10 | 76.02 | 1013.7 | ||||||
| Date | Time (akdt) | Wind (kph) | Vis. (km) | Weather | Sky Cond. | Air | Dwpt | Max. | Min. | Relative Humidity | Wind Chill (°C) | Heat Index (°C) | altimeter (cm) | sea level (mb) | 1 hr | 3 hr | 6 hr |
| 6 hour | |||||||||||||||||
| Temperature (ºC) | Pressure | Precipitation (cm) | |||||||||||||||